Time;durP1;ratioP1;P1;durP2;ratioP2;P2;SDS_P1;SDS_P2;PMS_P1;PMS_P2;Temp;Humidity;BMP_temperature;BMP_pressure;BME280_temperature;BME280_humidity;BME280_pressure;Samples;Min_cycle;Max_cycle;Signal;HPM_P1;HPM_P2
2023/09/12 00:02:04;;;;;;;30.83;19.65;;;;;;;-142.75;100.00;75479.91;4969878;28;20027;-62
2023/09/12 00:04:30;;;;;;;32.65;19.73;;;;;;;-142.75;100.00;75479.91;4969657;28;20023;-62
2023/09/12 00:06:55;;;;;;;25.77;16.50;;;;;;;-142.75;100.00;75483.84;4969337;28;20505;-62
2023/09/12 00:09:21;;;;;;;26.60;15.75;;;;;;;-142.75;100.00;75491.72;4969198;28;20303;-62
2023/09/12 00:11:46;;;;;;;17.48;12.05;;;;;;;-142.75;100.00;75503.53;4969528;28;20027;-62
2023/09/12 00:14:16;;;;;;;25.45;15.88;;;;;;;-142.75;100.00;75495.66;4969233;28;20029;-62
2023/09/12 00:16:41;;;;;;;26.10;17.17;;;;;;;-142.75;100.00;75491.72;4970166;28;20683;-62
2023/09/12 00:19:07;;;;;;;28.25;16.27;;;;;;;-142.75;100.00;75501.56;4969352;28;20102;-62
2023/09/12 00:21:32;;;;;;;28.92;16.98;;;;;;;-142.75;100.00;75513.38;4968842;28;20663;-61
2023/09/12 00:23:57;;;;;;;27.30;16.25;;;;;;;-142.75;100.00;75519.25;4969260;28;20107;-62
2023/09/12 00:26:22;;;;;;;21.23;13.45;;;;;;;-142.75;100.00;75531.06;4969213;28;20062;-62
2023/09/12 00:28:48;;;;;;;31.08;17.50;;;;;;;-142.75;100.00;75523.19;4968834;28;20051;-62
2023/09/12 00:31:13;;;;;;;26.65;17.05;;;;;;;-142.75;100.00;75507.47;4969497;28;20054;-62
2023/09/12 00:33:38;;;;;;;33.58;20.50;;;;;;;-142.75;100.00;75491.72;4969276;28;20077;-62
2023/09/12 00:36:04;;;;;;;33.03;19.60;;;;;;;-142.75;100.00;75489.75;4983937;28;20118;-62
2023/09/12 00:38:29;;;;;;;33.45;21.30;;;;;;;-142.75;100.00;75483.84;4969345;28;20082;-62
2023/09/12 00:40:55;;;;;;;35.45;20.83;;;;;;;-142.75;100.00;75487.78;4967796;28;20034;-62
2023/09/12 00:43:20;;;;;;;27.13;17.13;;;;;;;-142.75;100.00;75487.78;4969189;28;20498;-62
2023/09/12 00:45:46;;;;;;;26.70;15.88;;;;;;;-142.75;100.00;75495.66;4969092;28;20042;-62
2023/09/12 00:48:13;;;;;;;23.38;14.90;;;;;;;-142.75;100.00;75489.75;4969486;28;20094;-62
2023/09/12 00:50:39;;;;;;;22.80;14.52;;;;;;;-142.75;100.00;75501.56;4967487;28;20518;-62
2023/09/12 00:53:05;;;;;;;24.23;14.60;;;;;;;-142.75;100.00;75511.41;4968926;28;20085;-62
2023/09/12 00:55:32;;;;;;;25.88;14.65;;;;;;;-142.75;100.00;75515.31;4968968;28;20076;-61
2023/09/12 00:57:59;;;;;;;24.58;15.25;;;;;;;-142.75;100.00;75511.41;4983875;28;20038;-62
2023/09/12 01:00:25;;;;;;;22.10;14.07;;;;;;;-142.75;100.00;75515.31;4968528;28;20030;-62
2023/09/12 01:02:52;;;;;;;27.90;15.80;;;;;;;-142.75;100.00;75507.47;4967617;28;20596;-62
2023/09/12 01:05:17;;;;;;;32.17;18.75;;;;;;;-142.75;100.00;75507.47;4968303;28;20031;-62
2023/09/12 01:07:44;;;;;;;35.60;19.08;;;;;;;-142.75;100.00;75503.53;4983310;28;20033;-62
2023/09/12 01:10:09;;;;;;;34.25;19.38;;;;;;;-142.75;100.00;75507.47;4968386;28;20042;-62
2023/09/12 01:12:36;;;;;;;36.67;20.15;;;;;;;-142.75;100.00;75513.38;4968247;28;20023;-62
2023/09/12 01:15:02;;;;;;;34.50;19.95;;;;;;;-142.75;100.00;75511.41;4968613;28;20038;-62
2023/09/12 01:17:28;;;;;;;32.10;19.45;;;;;;;-142.75;100.00;75515.31;4968968;28;20022;-62
2023/09/12 01:19:54;;;;;;;33.28;19.88;;;;;;;-142.75;100.00;75515.31;4968106;28;20054;-62
2023/09/12 01:23:00;;;;;;;34.05;19.35;;;;;;;-142.75;100.00;75511.41;4968496;28;20110;-62
2023/09/12 01:25:42;;;;;;;31.52;19.17;;;;;;;-142.75;100.00;75531.06;4968261;28;20162;-62
2023/09/12 01:28:09;;;;;;;33.45;19.30;;;;;;;-142.75;100.00;75523.19;4968212;28;20066;-62
2023/09/12 01:30:35;;;;;;;34.60;19.95;;;;;;;-142.75;100.00;75536.97;4968020;28;20034;-62
2023/09/12 01:33:01;;;;;;;30.85;18.27;;;;;;;-142.75;100.00;75546.81;4967760;28;20030;-62
2023/09/12 01:35:27;;;;;;;31.27;18.40;;;;;;;-142.75;100.00;75554.69;4967600;28;20030;-62
2023/09/12 01:37:53;;;;;;;29.25;18.98;;;;;;;-142.75;100.00;75552.72;4967408;28;20061;-62
2023/09/12 01:40:27;;;;;;;31.60;17.63;;;;;;;-142.75;100.00;75558.63;4967641;28;20113;-62
2023/09/12 01:42:54;;;;;;;33.50;17.88;;;;;;;-142.75;100.00;75572.41;4967783;28;20710;-62
2023/09/12 01:45:19;;;;;;;32.13;17.77;;;;;;;-142.75;100.00;75564.53;4968057;28;20474;-62
2023/09/12 01:47:47;;;;;;;31.58;18.17;;;;;;;-142.75;100.00;75562.56;4983303;28;20034;-62
2023/09/12 01:50:13;;;;;;;36.25;18.95;;;;;;;-142.75;100.00;75568.47;4967156;28;20022;-62
2023/09/12 01:52:40;;;;;;;33.42;18.48;;;;;;;-142.75;100.00;75564.53;4967612;28;20029;-62
2023/09/12 01:55:09;;;;;;;33.22;18.73;;;;;;;-142.75;100.00;75550.75;4967595;28;20030;-62
2023/09/12 01:57:35;;;;;;;34.10;19.48;;;;;;;-142.75;100.00;75562.56;4967840;28;20575;-61
2023/09/12 02:00:01;;;;;;;31.77;18.17;;;;;;;-142.75;100.00;75550.75;4967253;28;20062;-62
2023/09/12 02:02:26;;;;;;;34.47;19.15;;;;;;;-142.75;100.00;75540.91;4967460;28;20426;-62
2023/09/12 02:05:09;;;;;;;33.67;19.95;;;;;;;-142.75;100.00;75540.91;4967663;28;20525;-62
2023/09/12 02:07:38;;;;;;;33.65;18.63;;;;;;;-142.75;100.00;75535.00;4967799;28;20035;-62
2023/09/12 02:10:07;;;;;;;34.95;20.25;;;;;;;-142.75;100.00;75523.19;4967645;28;20023;-62
2023/09/12 02:12:32;;;;;;;34.20;19.90;;;;;;;-142.75;100.00;75525.16;4967667;28;20030;-62
2023/09/12 02:14:58;;;;;;;34.67;19.88;;;;;;;-142.75;100.00;75527.13;4967741;28;20475;-62
2023/09/12 02:17:23;;;;;;;34.95;20.45;;;;;;;-142.75;100.00;75535.00;4967897;28;20031;-62
2023/09/12 02:19:49;;;;;;;35.17;18.80;;;;;;;-142.75;100.00;75554.69;4967033;28;20030;-62
2023/09/12 02:22:14;;;;;;;33.75;18.48;;;;;;;-142.75;100.00;75558.63;4967339;28;20518;-62
2023/09/12 02:24:39;;;;;;;29.27;17.60;;;;;;;-142.75;100.00;75552.72;4967775;28;20070;-61
2023/09/12 02:27:05;;;;;;;35.70;17.55;;;;;;;-142.75;100.00;75552.72;4982503;28;20118;-61
2023/09/12 02:29:32;;;;;;;31.42;17.27;;;;;;;-142.75;100.00;75562.56;4967326;28;20066;-62
2023/09/12 02:31:57;;;;;;;32.45;17.40;;;;;;;-142.75;100.00;75558.63;4955038;28;20258;-62
2023/09/12 02:34:23;;;;;;;29.60;16.40;;;;;;;-142.75;100.00;75568.47;4947946;28;20096;-62
2023/09/12 02:36:48;;;;;;;32.55;17.05;;;;;;;-142.75;100.00;75564.53;4947995;28;20038;-62
2023/09/12 02:39:14;;;;;;;29.13;16.80;;;;;;;-142.75;100.00;75574.38;4947383;28;20047;-62
2023/09/12 02:41:39;;;;;;;32.20;17.58;;;;;;;-142.75;100.00;75596.00;4947622;28;20155;-62
2023/09/12 02:44:04;;;;;;;26.85;16.10;;;;;;;-142.75;100.00;75584.22;4947720;28;20038;-61
2023/09/12 02:46:30;;;;;;;24.10;14.85;;;;;;;-142.75;100.00;75582.25;4948327;28;20067;-62
2023/09/12 02:48:55;;;;;;;26.00;15.93;;;;;;;-142.75;100.00;75599.94;4948248;28;20096;-62
2023/09/12 02:51:21;;;;;;;23.17;14.27;;;;;;;-142.75;100.00;75588.16;4947639;28;20027;-62
2023/09/12 02:53:46;;;;;;;24.83;14.82;;;;;;;-142.75;100.00;75574.38;4947756;28;20587;-62
2023/09/12 02:56:12;;;;;;;23.20;14.55;;;;;;;-142.75;100.00;75572.41;4948003;28;20106;-61
2023/09/12 02:58:37;;;;;;;23.13;13.68;;;;;;;-142.75;100.00;75550.75;4947935;28;20081;-61
2023/09/12 03:01:05;;;;;;;26.27;14.20;;;;;;;-142.75;100.00;75550.75;4947608;28;20025;-61
2023/09/12 03:03:30;;;;;;;27.73;15.55;;;;;;;-142.75;100.00;75542.88;4947928;28;20043;-62
2023/09/12 03:06:05;;;;;;;29.02;14.93;;;;;;;-142.75;100.00;75535.00;4947433;28;20047;-62
2023/09/12 03:08:30;;;;;;;32.55;15.52;;;;;;;-142.75;100.00;75525.16;4947970;28;20038;-62
2023/09/12 03:10:56;;;;;;;29.27;17.48;;;;;;;-142.75;100.00;75525.16;4947237;28;20415;-62
2023/09/12 03:13:25;;;;;;;32.28;17.52;;;;;;;-142.75;100.00;75521.22;4947737;28;20038;-62
2023/09/12 03:15:51;;;;;;;36.45;18.70;;;;;;;-142.75;100.00;75533.03;4947558;28;20035;-61
2023/09/12 03:18:16;;;;;;;29.90;16.25;;;;;;;-142.75;100.00;75542.88;4948109;28;20091;-62
2023/09/12 03:20:42;;;;;;;31.95;17.25;;;;;;;-142.75;100.00;75544.84;4947040;28;20025;-62
2023/09/12 03:23:07;;;;;;;31.13;16.50;;;;;;;-142.75;100.00;75540.91;4947303;28;20051;-62
2023/09/12 03:25:37;;;;;;;30.52;16.85;;;;;;;-142.75;100.00;75521.22;4947603;28;20055;-61
2023/09/12 03:28:04;;;;;;;33.95;17.27;;;;;;;-142.75;100.00;75521.22;4947683;28;20106;-62
2023/09/12 03:30:29;;;;;;;29.20;16.38;;;;;;;-142.75;100.00;75517.28;4947527;28;20023;-62
2023/09/12 03:32:55;;;;;;;31.95;16.95;;;;;;;-142.75;100.00;75523.19;4947707;28;20547;-62
2023/09/12 03:35:20;;;;;;;30.52;18.60;;;;;;;-142.75;100.00;75542.88;4947336;28;20034;-62
2023/09/12 03:37:45;;;;;;;35.67;18.27;;;;;;;-142.75;100.00;75568.47;4947271;28;20030;-62
2023/09/12 03:40:11;;;;;;;36.47;17.02;;;;;;;-142.75;100.00;75574.38;4946982;28;20114;-62
2023/09/12 03:42:37;;;;;;;27.42;16.75;;;;;;;-142.75;100.00;75578.31;4947551;28;20102;-62
2023/09/12 03:45:03;;;;;;;30.35;16.85;;;;;;;-142.75;100.00;75597.97;4947503;28;20410;-62
2023/09/12 03:47:28;;;;;;;28.98;15.27;;;;;;;-142.75;100.00;75572.41;4947935;28;20122;-62
2023/09/12 03:49:54;;;;;;;29.15;15.82;;;;;;;-142.75;100.00;75576.34;4948254;28;20556;-62
2023/09/12 03:52:19;;;;;;;30.35;16.92;;;;;;;-142.75;100.00;75566.50;4950687;28;20042;-62
2023/09/12 03:54:44;;;;;;;34.83;19.10;;;;;;;-142.75;100.00;75574.38;4956665;28;20454;-62
2023/09/12 03:57:10;;;;;;;31.58;17.90;;;;;;;-142.75;100.00;75560.59;4970073;28;20576;-62
2023/09/12 03:59:35;;;;;;;33.88;17.65;;;;;;;-142.75;100.00;75550.75;4969548;28;20046;-62
2023/09/12 04:02:02;;;;;;;33.95;18.20;;;;;;;-142.75;100.00;75552.72;4969886;28;20057;-62
2023/09/12 04:04:28;;;;;;;28.50;16.65;;;;;;;-142.75;100.00;75554.69;4967317;28;20115;-62
2023/09/12 04:06:54;;;;;;;35.70;17.55;;;;;;;-142.75;100.00;75558.63;4950815;28;20114;-62
2023/09/12 04:09:20;;;;;;;32.55;16.00;;;;;;;-142.75;100.00;75548.78;4950779;28;20502;-62
2023/09/12 04:11:45;;;;;;;31.35;18.08;;;;;;;-142.75;100.00;75542.88;4950373;28;20062;-62
2023/09/12 04:14:10;;;;;;;34.83;17.38;;;;;;;-142.75;100.00;75558.63;4950479;28;20528;-62
2023/09/12 04:16:36;;;;;;;32.30;17.02;;;;;;;-142.75;100.00;75558.63;4950439;28;20538;-61
2023/09/12 04:19:01;;;;;;;31.23;17.42;;;;;;;-142.75;100.00;75562.56;4950753;28;20030;-61
2023/09/12 04:21:26;;;;;;;33.28;18.23;;;;;;;-142.75;100.00;75558.63;4950154;28;20106;-61
2023/09/12 04:23:52;;;;;;;36.60;17.73;;;;;;;-142.75;100.00;75548.78;4948844;28;20035;-62
2023/09/12 04:26:17;;;;;;;38.35;17.67;;;;;;;-142.75;100.00;75552.72;4950078;28;20051;-62
2023/09/12 04:28:43;;;;;;;43.63;19.17;;;;;;;-142.75;100.00;75546.81;4949960;28;20067;-61
2023/09/12 04:31:08;;;;;;;35.63;17.77;;;;;;;-142.75;100.00;75540.91;4949971;28;20158;-62
2023/09/12 04:33:34;;;;;;;34.05;18.15;;;;;;;-142.75;100.00;75540.91;4968940;28;20034;-61
2023/09/12 04:36:00;;;;;;;34.60;17.33;;;;;;;-142.75;100.00;75523.19;4969448;28;20027;-62
2023/09/12 04:38:26;;;;;;;36.80;17.65;;;;;;;-142.75;100.00;75523.19;4968900;28;20475;-62
2023/09/12 04:41:04;;;;;;;33.10;17.13;;;;;;;-142.75;100.00;75519.25;4968516;28;20027;-62
2023/09/12 04:43:30;;;;;;;38.47;19.55;;;;;;;-142.75;100.00;75521.22;4968908;28;20038;-62
2023/09/12 04:45:55;;;;;;;33.33;17.27;;;;;;;-142.75;100.00;75507.47;4968120;28;20124;-62
2023/09/12 04:48:21;;;;;;;38.08;17.40;;;;;;;-142.75;100.00;75513.38;4968695;28;20046;-62
2023/09/12 04:50:46;;;;;;;31.75;17.50;;;;;;;-142.75;100.00;75507.47;4967947;28;20023;-61
2023/09/12 04:53:11;;;;;;;35.67;17.33;;;;;;;-142.75;100.00;75501.56;4968087;28;20058;-62
2023/09/12 04:55:37;;;;;;;39.75;19.33;;;;;;;-142.75;100.00;75501.56;4968033;28;20058;-61
2023/09/12 04:58:04;;;;;;;41.17;19.10;;;;;;;-142.75;100.00;75495.66;4968294;28;20074;-61
2023/09/12 05:00:30;;;;;;;35.85;19.90;;;;;;;-142.75;100.00;75495.66;4967468;28;20091;-61
2023/09/12 05:02:55;;;;;;;34.65;18.73;;;;;;;-142.75;100.00;75491.72;4967396;28;20022;-61
2023/09/12 05:05:20;;;;;;;39.22;18.63;;;;;;;-142.75;100.00;75503.53;4967865;28;20054;-62
2023/09/12 05:07:46;;;;;;;42.65;20.95;;;;;;;-142.75;100.00;75487.78;4958864;28;20030;-62
2023/09/12 05:10:11;;;;;;;45.20;20.70;;;;;;;-142.75;100.00;75479.91;4948864;28;20023;-61
2023/09/12 05:12:36;;;;;;;41.50;20.23;;;;;;;-142.75;100.00;75477.94;4948708;28;20030;-61
2023/09/12 05:15:02;;;;;;;43.90;21.17;;;;;;;-142.75;100.00;75477.94;4948771;28;20031;-61
2023/09/12 05:17:28;;;;;;;43.55;20.60;;;;;;;-142.75;100.00;75474.00;4947473;28;20031;-61
2023/09/12 05:19:53;;;;;;;40.33;20.38;;;;;;;-142.75;100.00;75468.09;4948305;28;20037;-61
2023/09/12 05:22:19;;;;;;;42.72;21.05;;;;;;;-142.75;100.00;75452.34;4963232;28;20034;-59
2023/09/12 05:24:45;;;;;;;42.83;21.67;;;;;;;-142.75;100.00;75436.59;4968389;28;20029;-61
2023/09/12 05:27:11;;;;;;;45.78;22.98;;;;;;;-142.75;100.00;75422.84;4968355;28;20026;-61
2023/09/12 05:29:37;;;;;;;63.42;24.98;;;;;;;-142.75;100.00;75428.75;4968055;28;20031;-61
2023/09/12 05:32:03;;;;;;;66.30;29.42;;;;;;;-142.75;100.00;75418.91;4968057;28;20126;-61
2023/09/12 05:34:28;;;;;;;73.28;31.50;;;;;;;-142.75;100.00;75428.75;4968242;28;20121;-61
2023/09/12 05:36:53;;;;;;;74.63;30.95;;;;;;;-142.75;100.00;75430.72;4968168;28;20534;-61
2023/09/12 05:39:19;;;;;;;70.10;31.55;;;;;;;-142.75;100.00;75438.56;4968736;28;20031;-61
2023/09/12 05:41:44;;;;;;;69.03;29.45;;;;;;;-142.75;100.00;75444.47;4968489;28;20023;-62
2023/09/12 05:44:12;;;;;;;68.28;30.15;;;;;;;-142.75;100.00;75438.56;4966753;28;20034;-61
2023/09/12 05:46:37;;;;;;;71.78;31.10;;;;;;;-142.75;100.00;75440.53;4950319;28;20491;-61
2023/09/12 05:49:03;;;;;;;69.93;30.92;;;;;;;-142.75;100.00;75422.84;4951750;28;20031;-61
2023/09/12 05:51:29;;;;;;;76.13;30.88;;;;;;;-142.75;100.00;75426.78;4952577;28;20495;-61
2023/09/12 05:53:54;;;;;;;75.75;29.88;;;;;;;-142.75;100.00;75409.06;4953069;28;20027;-61
2023/09/12 05:56:20;;;;;;;66.28;30.10;;;;;;;-142.75;100.00;75409.06;4953532;28;20475;-61
2023/09/12 05:58:46;;;;;;;67.13;29.90;;;;;;;-142.75;100.00;75393.31;4950443;28;20031;-60
2023/09/12 06:01:11;;;;;;;73.03;31.25;;;;;;;-142.75;100.00;75397.25;4958598;28;20550;-61
2023/09/12 06:03:37;;;;;;;68.13;29.90;;;;;;;-142.75;100.00;75395.28;4955674;28;20569;-60
2023/09/12 06:06:02;;;;;;;74.70;31.10;;;;;;;-142.75;100.00;75381.50;4954670;28;20027;-61
2023/09/12 06:08:28;;;;;;;72.97;32.58;;;;;;;-142.75;100.00;75393.31;4951436;28;20102;-61
2023/09/12 06:10:54;;;;;;;77.80;33.33;;;;;;;-142.75;100.00;75393.31;4952054;28;20488;-61
2023/09/12 06:13:19;;;;;;;77.03;31.95;;;;;;;-142.75;100.00;75403.16;4950845;28;20454;-61
2023/09/12 06:15:45;;;;;;;72.57;32.50;;;;;;;-142.75;100.00;75399.22;4953564;28;20042;-61
2023/09/12 06:18:10;;;;;;;74.25;31.95;;;;;;;-142.75;100.00;75405.13;4959415;28;20027;-61
2023/09/12 06:20:36;;;;;;;69.57;31.00;;;;;;;-142.75;100.00;75399.22;4957857;28;20054;-60
2023/09/12 06:23:03;;;;;;;66.10;29.15;;;;;;;-142.75;100.00;75389.38;4952843;28;20106;-61
2023/09/12 06:25:29;;;;;;;80.13;33.55;;;;;;;-142.75;100.00;75401.19;4952853;28;20031;-58
2023/09/12 06:27:54;;;;;;;72.50;31.63;;;;;;;-142.75;100.00;75389.38;4958544;28;20027;-61
2023/09/12 06:30:19;;;;;;;72.60;31.13;;;;;;;-142.75;100.00;75393.31;4955952;28;20023;-60
2023/09/12 06:32:45;;;;;;;77.65;33.00;;;;;;;-142.75;100.00;75395.28;4956177;28;20031;-60
2023/09/12 06:35:10;;;;;;;67.22;30.20;;;;;;;-142.75;100.00;75375.59;4952937;28;20055;-61
2023/09/12 06:37:38;;;;;;;65.13;30.58;;;;;;;-142.75;100.00;75373.63;4948536;28;20402;-61
2023/09/12 06:40:03;;;;;;;74.20;31.90;;;;;;;-142.75;100.00;75377.56;4948523;28;20669;-61
2023/09/12 06:42:29;;;;;;;70.32;30.63;;;;;;;-142.75;100.00;75393.31;4948834;28;20073;-60
2023/09/12 06:44:54;;;;;;;63.13;28.80;;;;;;;-142.75;100.00;75395.28;4948956;28;20054;-59
2023/09/12 06:47:19;;;;;;;75.65;31.52;;;;;;;-142.75;100.00;75381.50;4948086;28;20019;-61
2023/09/12 06:49:45;;;;;;;67.55;30.67;;;;;;;-142.75;100.00;75385.44;4948161;28;20398;-61
2023/09/12 06:52:10;;;;;;;72.78;32.83;;;;;;;-142.75;100.00;75393.31;4948052;28;20034;-61
2023/09/12 06:54:36;;;;;;;71.53;33.38;;;;;;;-142.75;100.00;75393.31;4952800;28;20022;-61
2023/09/12 06:57:01;;;;;;;69.38;31.38;;;;;;;-142.75;100.00;75391.34;4948271;28;20039;-61
2023/09/12 06:59:26;;;;;;;69.35;32.25;;;;;;;-142.75;100.00;75389.38;4949048;28;20020;-61
2023/09/12 07:01:52;;;;;;;66.47;31.88;;;;;;;-142.75;100.00;75385.44;4950393;28;20039;-61
2023/09/12 07:04:17;;;;;;;73.95;33.58;;;;;;;-142.75;100.00;75387.41;4951253;28;20487;-61
2023/09/12 07:06:42;;;;;;;73.43;34.72;;;;;;;-142.75;100.00;75389.38;4953083;28;20098;-61
2023/09/12 07:09:08;;;;;;;70.00;33.33;;;;;;;-142.75;100.00;75393.31;4956482;28;20651;-61
2023/09/12 07:11:34;;;;;;;65.82;31.58;;;;;;;-142.75;100.00;75377.56;4947897;28;20159;-61
2023/09/12 07:14:00;;;;;;;68.10;32.85;;;;;;;-142.75;100.00;75375.59;4953068;28;20627;-61
2023/09/12 07:16:25;;;;;;;70.88;32.72;;;;;;;-142.75;100.00;75369.69;4948601;28;20035;-61
2023/09/12 07:18:51;;;;;;;72.95;33.30;;;;;;;-142.75;100.00;75359.88;4951124;28;20065;-61
2023/09/12 07:21:17;;;;;;;69.00;33.58;;;;;;;-142.75;100.00;75355.94;4952288;28;20066;-61
2023/09/12 07:23:43;;;;;;;68.97;33.40;;;;;;;-142.75;100.00;75338.22;4948659;28;20027;-61
2023/09/12 07:26:13;;;;;;;70.90;33.10;;;;;;;-142.75;100.00;75338.22;4950498;28;20130;-64
2023/09/12 07:28:39;;;;;;;68.05;32.33;;;;;;;-142.75;100.00;75310.66;4955701;28;20106;-61
2023/09/12 07:31:04;;;;;;;62.70;32.08;;;;;;;-142.75;100.00;75291.00;4954536;28;20037;-61
2023/09/12 07:33:29;;;;;;;62.40;30.08;;;;;;;-142.75;100.00;75277.22;4949268;28;20027;-61
2023/09/12 07:35:55;;;;;;;67.78;32.58;;;;;;;-142.75;100.00;75294.94;4952067;28;20067;-61
2023/09/12 07:38:21;;;;;;;62.60;33.05;;;;;;;-142.75;100.00;75316.56;4954043;28;20078;-61
2023/09/12 07:40:46;;;;;;;56.83;30.65;;;;;;;-142.75;100.00;75304.75;4952303;28;20035;-62
2023/09/12 07:43:12;;;;;;;64.20;31.92;;;;;;;-142.75;100.00;75279.19;4954077;28;20033;-60
2023/09/12 07:45:37;;;;;;;60.83;31.77;;;;;;;-142.75;100.00;75279.19;4971046;28;20624;-59
2023/09/12 07:48:07;;;;;;;62.83;33.50;;;;;;;-142.75;100.00;75253.59;4956925;28;20039;-60
2023/09/12 07:50:33;;;;;;;61.00;32.80;;;;;;;-142.75;100.00;75255.56;4950956;28;20024;-60
2023/09/12 07:52:58;;;;;;;58.70;32.58;;;;;;;-142.75;100.00;75275.25;4949899;28;20442;-61
2023/09/12 07:55:24;;;;;;;55.42;31.65;;;;;;;-142.75;100.00;75281.16;4948831;28;20422;-60
2023/09/12 07:57:49;;;;;;;59.40;32.10;;;;;;;-142.75;100.00;75283.13;4947923;28;20019;-60
2023/09/12 08:00:16;;;;;;;58.55;31.80;;;;;;;-142.75;100.00;75273.28;4948090;28;20030;-60
2023/09/12 08:02:41;;;;;;;59.60;31.38;;;;;;;-142.75;100.00;75271.31;4950899;28;20562;-61
2023/09/12 08:05:08;;;;;;;58.17;30.08;;;;;;;-142.75;100.00;75277.22;4948577;28;20118;-63
2023/09/12 08:07:33;;;;;;;53.78;30.98;;;;;;;-142.75;100.00;75291.00;4948380;28;20073;-62
2023/09/12 08:09:59;;;;;;;56.95;31.17;;;;;;;-142.75;100.00;75285.09;4946901;28;20102;-61
2023/09/12 08:12:26;;;;;;;54.05;29.90;;;;;;;-142.75;100.00;75289.03;4948282;28;20032;-61
2023/09/12 08:14:52;;;;;;;57.53;30.05;;;;;;;-142.75;100.00;75273.28;4947960;28;20027;-62
2023/09/12 08:17:18;;;;;;;59.50;31.65;;;;;;;-142.75;100.00;75281.16;4950832;28;20109;-61
2023/09/12 08:19:43;;;;;;;55.92;30.40;;;;;;;-142.75;100.00;75277.22;4950192;28;20102;-62
2023/09/12 08:22:10;;;;;;;52.15;29.95;;;;;;;-142.75;100.00;75287.06;4950907;28;20038;-62
2023/09/12 08:24:36;;;;;;;52.38;29.83;;;;;;;-142.75;100.00;75287.06;4950338;28;20027;-63
2023/09/12 08:27:03;;;;;;;52.72;29.08;;;;;;;-142.75;100.00;75291.00;4953228;28;20027;-61
2023/09/12 08:29:29;;;;;;;50.92;30.45;;;;;;;-142.75;100.00;75255.56;4952432;28;20556;-61
2023/09/12 08:31:54;;;;;;;56.00;30.80;;;;;;;-142.75;100.00;75224.09;4949862;28;20023;-61
2023/09/12 08:34:20;;;;;;;54.58;29.38;;;;;;;-142.75;100.00;75251.63;4946880;28;20037;-61
2023/09/12 08:36:47;;;;;;;55.20;30.48;;;;;;;-142.75;100.00;75289.03;4945873;28;20151;-61
2023/09/12 08:39:15;;;;;;;52.63;29.58;;;;;;;-142.75;100.00;75300.81;4947362;28;20015;-63
2023/09/12 08:41:42;;;;;;;47.28;29.20;;;;;;;-142.75;100.00;75314.59;4947532;28;20078;-62
2023/09/12 08:44:09;;;;;;;50.15;29.15;;;;;;;-142.75;100.00;75342.16;4947373;28;20031;-62
2023/09/12 08:46:34;;;;;;;48.03;27.65;;;;;;;-142.75;100.00;75361.84;4945749;28;20114;-62
2023/09/12 08:49:00;;;;;;;48.53;28.45;;;;;;;-142.75;100.00;75326.41;4947234;28;20110;-62
2023/09/12 08:51:26;;;;;;;50.08;28.58;;;;;;;-142.75;100.00;75353.97;4946994;28;20514;-62
2023/09/12 08:53:52;;;;;;;49.60;29.33;;;;;;;-142.75;100.00;75332.31;4949689;28;20526;-62
2023/09/12 08:56:20;;;;;;;50.50;27.88;;;;;;;-142.75;100.00;75373.63;4955090;28;20030;-62
2023/09/12 08:58:47;;;;;;;47.08;28.02;;;;;;;-142.75;100.00;75314.59;4951213;28;20517;-62
2023/09/12 09:01:14;;;;;;;41.17;26.73;;;;;;;-142.75;100.00;75312.63;4947201;28;20023;-61
2023/09/12 09:03:43;;;;;;;49.38;28.73;;;;;;;-142.75;100.00;75389.38;4947036;28;20027;-62
2023/09/12 09:06:10;;;;;;;44.88;27.90;;;;;;;-142.75;100.00;75352.00;4948428;28;20038;-62
2023/09/12 09:08:36;;;;;;;45.00;28.10;;;;;;;-142.75;100.00;75320.50;4951637;28;20026;-62
2023/09/12 09:11:03;;;;;;;45.05;27.48;;;;;;;-142.75;100.00;75330.34;4957022;28;20018;-62
2023/09/12 09:13:29;;;;;;;44.08;26.90;;;;;;;-142.75;100.00;75355.94;4954494;28;20711;-62
2023/09/12 09:16:23;;;;;;;43.95;28.20;;;;;;;-142.75;100.00;75411.03;4947742;28;20056;-62
2023/09/12 09:19:01;;;;;;;46.80;28.17;;;;;;;-142.75;100.00;75432.69;4946691;28;20035;-61
2023/09/12 09:21:31;;;;;;;40.83;28.05;;;;;;;-142.75;100.00;75440.53;4946969;28;20038;-60
2023/09/12 09:24:07;;;;;;;42.85;26.15;;;;;;;-142.75;100.00;75460.22;4947673;28;20047;-61
2023/09/12 09:26:46;;;;;;;44.45;27.27;;;;;;;-142.75;100.00;75434.66;4945638;28;20031;-61
2023/09/12 09:29:16;;;;;;;43.50;26.35;;;;;;;-142.75;100.00;75460.22;4950071;28;20036;-61
2023/09/12 09:31:44;;;;;;;40.53;25.45;;;;;;;-142.75;100.00;75452.34;4950985;28;20401;-61
2023/09/12 09:34:13;;;;;;;39.97;26.15;;;;;;;-142.75;100.00;75420.88;4951637;28;20043;-61
2023/09/12 09:36:43;;;;;;;41.67;24.83;;;;;;;-142.75;100.00;75353.97;4947028;28;20023;-63
2023/09/12 09:39:09;;;;;;;32.78;22.13;;;;;;;-142.75;100.00;75355.94;4946922;28;20027;-62
2023/09/12 09:41:34;;;;;;;37.08;23.90;;;;;;;-142.75;100.00;75322.47;4947522;28;20031;-61
2023/09/12 09:44:00;;;;;;;33.33;21.88;;;;;;;-142.75;100.00;75355.94;4953533;28;20026;-61
2023/09/12 09:46:25;;;;;;;33.25;21.58;;;;;;;-142.75;100.00;75371.66;4952778;28;20627;-61
2023/09/12 09:48:51;;;;;;;33.42;20.85;;;;;;;-142.75;100.00;75353.97;4953771;28;20066;-62
2023/09/12 09:51:17;;;;;;;36.63;22.00;;;;;;;-142.75;100.00;75353.97;4950269;28;20030;-65
2023/09/12 09:53:43;;;;;;;34.60;20.90;;;;;;;-142.75;100.00;75411.03;4949136;28;20055;-61
2023/09/12 09:56:10;;;;;;;30.73;20.30;;;;;;;-142.75;100.00;75401.19;4949540;28;20090;-62
2023/09/12 09:58:35;;;;;;;32.03;19.55;;;;;;;-142.75;100.00;75371.66;4949642;28;20487;-62
2023/09/12 10:01:01;;;;;;;34.78;22.60;;;;;;;-142.75;100.00;75359.88;4950400;28;20046;-62
2023/09/12 10:03:28;;;;;;;32.28;20.33;;;;;;;-142.75;100.00;75371.66;4952652;28;20023;-61
2023/09/12 10:05:56;;;;;;;38.67;20.65;;;;;;;-142.75;100.00;75344.13;4953889;28;20038;-62
2023/09/12 10:08:24;;;;;;;33.63;20.05;;;;;;;-142.75;100.00;75342.16;4945945;28;20064;-62
2023/09/12 10:10:51;;;;;;;32.03;19.58;;;;;;;-142.75;100.00;75326.41;4945383;28;20027;-61
2023/09/12 10:13:18;;;;;;;30.38;19.15;;;;;;;-142.75;100.00;75287.06;4945747;28;20035;-62
2023/09/12 10:15:45;;;;;;;32.95;18.88;;;;;;;-142.75;100.00;75218.19;4945736;28;20176;-62
2023/09/12 10:18:18;;;;;;;28.65;18.85;;;;;;;-142.75;100.00;75249.66;4945389;28;20057;-62
2023/09/12 10:20:57;;;;;;;30.20;17.98;;;;;;;-142.75;100.00;75220.16;4945455;28;20031;-62
2023/09/12 10:23:41;;;;;;;27.13;17.05;;;;;;;-142.75;100.00;75204.41;4945509;28;20203;-59
2023/09/12 10:26:11;;;;;;;29.65;16.73;;;;;;;-142.75;100.00;75198.50;4953165;28;20162;-63
2023/09/12 10:28:38;;;;;;;28.25;17.58;;;;;;;-142.75;100.00;75192.59;4952346;28;20031;-63
2023/09/12 10:31:06;;;;;;;27.10;18.08;;;;;;;-142.75;100.00;75253.59;4953177;28;20166;-62
2023/09/12 10:33:31;;;;;;;30.70;20.02;;;;;;;-142.75;100.00;75204.41;4954479;28;20035;-63
2023/09/12 10:35:58;;;;;;;30.50;18.65;;;;;;;-142.75;100.00;75263.44;4947824;28;20061;-63
2023/09/12 10:38:26;;;;;;;26.95;16.95;;;;;;;-142.75;100.00;75218.19;4944296;28;20526;-63
2023/09/12 10:40:54;;;;;;;25.92;17.60;;;;;;;-142.75;100.00;75222.13;4948543;28;20037;-62
2023/09/12 10:43:21;;;;;;;29.55;19.27;;;;;;;-142.75;100.00;75228.00;4949525;28;20031;-63
2023/09/12 10:45:49;;;;;;;30.52;19.05;;;;;;;-142.75;100.00;75243.75;4945352;28;20551;-62
2023/09/12 10:48:14;;;;;;;30.02;18.73;;;;;;;-142.75;100.00;75168.97;4945702;28;20403;-64
2023/09/12 10:50:40;;;;;;;30.42;18.73;;;;;;;-142.75;100.00;75147.34;4945090;28;20038;-63
2023/09/12 10:53:13;;;;;;;29.73;17.90;;;;;;;-142.75;100.00;75119.78;4945235;28;20051;-62